Time;durP1;ratioP1;P1;durP2;ratioP2;P2;SDS_P1;SDS_P2;PMS_P1;PMS_P2;Temp;Humidity;BMP_temperature;BMP_pressure;BME280_temperature;BME280_humidity;BME280_pressure;Samples;Min_cycle;Max_cycle;Signal;HPM_P1;HPM_P2
2023/08/20 00:02:45;;;;;;;8.57;5.15;;;;;;;;;;12814449;23;19989;-70
2023/08/20 00:07:45;;;;;;;14.93;5.88;;;;;;;;;;12814448;23;20008;-69
2023/08/20 00:12:46;;;;;;;11.43;5.55;;;;;;;;;;12814204;23;20283;-70
2023/08/20 00:17:47;;;;;;;9.83;6.07;;;;;;;;;;12813874;23;20000;-73
2023/08/20 00:22:47;;;;;;;8.07;6.00;;;;;;;;;;12813371;23;20176;-68
2023/08/20 00:27:48;;;;;;;12.45;7.00;;;;;;;;;;12812831;23;20000;-68
2023/08/20 00:32:48;;;;;;;11.80;6.43;;;;;;;;;;12812757;23;20068;-68
2023/08/20 00:37:48;;;;;;;9.95;6.63;;;;;;;;;;12812470;23;20004;-68
2023/08/20 00:42:49;;;;;;;9.85;5.55;;;;;;;;;;12800052;23;20008;-68
2023/08/20 00:47:49;;;;;;;13.20;7.00;;;;;;;;;;12810674;23;20001;-68
2023/08/20 00:52:50;;;;;;;7.15;6.25;;;;;;;;;;12814746;23;20267;-68
2023/08/20 00:57:50;;;;;;;9.88;6.78;;;;;;;;;;12813624;23;20326;-68
2023/08/20 01:02:51;;;;;;;10.23;6.45;;;;;;;;;;12813379;23;19993;-68
2023/08/20 01:07:51;;;;;;;10.15;7.00;;;;;;;;;;12813837;23;20299;-67
2023/08/20 01:12:52;;;;;;;11.00;6.78;;;;;;;;;;12814032;23;19989;-67
2023/08/20 01:17:52;;;;;;;16.23;7.50;;;;;;;;;;12813897;23;19993;-67
2023/08/20 01:22:59;;;;;;;10.87;6.80;;;;;;;;;;12813809;23;20072;-67
2023/08/20 01:28:05;;;;;;;11.43;7.13;;;;;;;;;;12813632;23;20318;-68
2023/08/20 01:33:07;;;;;;;15.15;6.85;;;;;;;;;;12811498;23;20084;-68
2023/08/20 01:38:07;;;;;;;13.13;7.32;;;;;;;;;;12817871;23;19997;-68
2023/08/20 01:43:07;;;;;;;10.90;7.13;;;;;;;;;;12806585;23;19993;-67
2023/08/20 01:48:08;;;;;;;9.98;7.25;;;;;;;;;;12817167;23;20004;-68
2023/08/20 01:53:09;;;;;;;11.10;7.63;;;;;;;;;;12817668;23;20031;-67
2023/08/20 01:58:09;;;;;;;12.35;7.97;;;;;;;;;;12817274;23;19993;-68
2023/08/20 02:03:10;;;;;;;9.45;7.45;;;;;;;;;;12817123;23;20183;-68
2023/08/20 02:08:10;;;;;;;12.30;7.93;;;;;;;;;;12816995;23;20255;-67
2023/08/20 02:13:10;;;;;;;11.10;7.93;;;;;;;;;;12816867;23;20024;-68
2023/08/20 02:18:11;;;;;;;13.77;8.30;;;;;;;;;;12794287;23;20203;-68
2023/08/20 02:23:11;;;;;;;12.77;8.60;;;;;;;;;;12794081;23;20075;-68
2023/08/20 02:28:11;;;;;;;12.97;9.00;;;;;;;;;;12817054;23;20307;-68
2023/08/20 02:33:11;;;;;;;14.57;8.63;;;;;;;;;;12816714;23;19997;-68
2023/08/20 02:38:12;;;;;;;12.90;8.33;;;;;;;;;;12816202;23;20001;-67
2023/08/20 02:43:12;;;;;;;12.47;8.40;;;;;;;;;;12803410;23;20005;-68
2023/08/20 02:48:13;;;;;;;12.55;8.73;;;;;;;;;;12816105;23;20075;-67
2023/08/20 02:53:14;;;;;;;12.73;9.02;;;;;;;;;;12816184;23;19996;-68
2023/08/20 02:58:14;;;;;;;11.18;7.80;;;;;;;;;;12816036;23;20016;-68
2023/08/20 03:03:14;;;;;;;17.40;8.10;;;;;;;;;;12815812;23;20039;-68
2023/08/20 03:08:15;;;;;;;11.52;8.60;;;;;;;;;;12793869;23;20008;-68
2023/08/20 03:13:15;;;;;;;14.05;8.57;;;;;;;;;;12815660;23;20048;-69
2023/08/20 03:18:15;;;;;;;22.45;8.77;;;;;;;;;;12815382;23;19993;-68
2023/08/20 03:23:15;;;;;;;11.88;7.75;;;;;;;;;;12815270;23;20108;-68
2023/08/20 03:28:17;;;;;;;11.75;8.73;;;;;;;;;;12814692;23;20005;-68
2023/08/20 03:33:18;;;;;;;16.15;8.48;;;;;;;;;;12813487;23;20024;-68
2023/08/20 03:38:18;;;;;;;10.85;7.50;;;;;;;;;;12811738;23;20016;-68
2023/08/20 03:43:18;;;;;;;9.82;6.97;;;;;;;;;;12799131;23;20005;-68
2023/08/20 03:48:19;;;;;;;11.32;6.95;;;;;;;;;;12811553;23;20031;-68
2023/08/20 03:53:19;;;;;;;8.97;6.67;;;;;;;;;;12812519;23;20240;-68
2023/08/20 03:58:19;;;;;;;9.32;6.45;;;;;;;;;;12790391;23;20000;-68
2023/08/20 04:03:19;;;;;;;12.43;7.13;;;;;;;;;;12814897;23;20279;-68
2023/08/20 04:08:20;;;;;;;10.80;7.55;;;;;;;;;;12814092;23;19997;-68
2023/08/20 04:13:20;;;;;;;15.68;9.13;;;;;;;;;;12814355;23;19993;-68
2023/08/20 04:18:20;;;;;;;10.90;6.87;;;;;;;;;;12814518;23;19993;-68
2023/08/20 04:23:21;;;;;;;10.83;7.07;;;;;;;;;;12814480;23;20015;-68
2023/08/20 04:28:21;;;;;;;8.45;6.43;;;;;;;;;;12814656;23;20001;-68
2023/08/20 04:33:21;;;;;;;8.93;6.13;;;;;;;;;;12792240;23;19997;-68
2023/08/20 04:38:22;;;;;;;13.53;6.97;;;;;;;;;;12814508;23;20012;-68
2023/08/20 04:43:22;;;;;;;10.90;7.05;;;;;;;;;;12801335;23;20019;-68
2023/08/20 04:48:22;;;;;;;11.13;7.50;;;;;;;;;;12813472;23;20191;-68
2023/08/20 04:53:22;;;;;;;9.23;6.10;;;;;;;;;;12814030;23;20177;-68
2023/08/20 04:58:23;;;;;;;9.88;7.35;;;;;;;;;;12813864;23;19989;-69
2023/08/20 05:03:23;;;;;;;10.75;6.07;;;;;;;;;;12814150;23;20203;-69
2023/08/20 05:08:23;;;;;;;9.43;6.70;;;;;;;;;;12817670;23;19997;-69
2023/08/20 05:13:24;;;;;;;10.20;6.90;;;;;;;;;;12796118;23;19992;-71
2023/08/20 05:18:24;;;;;;;9.32;5.57;;;;;;;;;;12818135;23;19997;-75
2023/08/20 05:23:24;;;;;;;10.33;6.67;;;;;;;;;;12817943;23;20299;-74
2023/08/20 05:28:25;;;;;;;8.18;6.32;;;;;;;;;;12795920;23;20047;-71
2023/08/20 05:33:26;;;;;;;11.30;6.07;;;;;;;;;;12793569;23;20023;-72
2023/08/20 05:38:26;;;;;;;10.48;5.70;;;;;;;;;;12812178;23;20020;-71
2023/08/20 05:43:26;;;;;;;7.38;5.57;;;;;;;;;;12800304;23;20083;-76
2023/08/20 05:48:27;;;;;;;10.83;5.07;;;;;;;;;;12813054;23;20008;-76
2023/08/20 05:53:27;;;;;;;10.88;5.65;;;;;;;;;;12781616;23;20005;-76
2023/08/20 05:58:28;;;;;;;9.60;5.75;;;;;;;;;;12779154;23;20000;-73
2023/08/20 06:03:28;;;;;;;17.70;5.88;;;;;;;;;;12798561;23;20322;-70
2023/08/20 06:08:28;;;;;;;7.47;4.90;;;;;;;;;;12799238;23;20004;-69
2023/08/20 06:13:28;;;;;;;9.63;5.50;;;;;;;;;;12799507;23;20207;-71
2023/08/20 06:18:29;;;;;;;13.73;5.20;;;;;;;;;;12797345;23;20485;-72
2023/08/20 06:23:29;;;;;;;7.00;5.65;;;;;;;;;;12797882;23;20045;-72
2023/08/20 06:28:30;;;;;;;6.50;5.15;;;;;;;;;;12794802;23;20302;-72
2023/08/20 06:33:30;;;;;;;8.70;5.32;;;;;;;;;;12793502;23;20048;-72
2023/08/20 06:38:31;;;;;;;6.20;4.72;;;;;;;;;;12791998;23;20341;-72
2023/08/20 06:43:31;;;;;;;9.43;4.50;;;;;;;;;;12773280;23;20071;-72
2023/08/20 06:48:31;;;;;;;14.32;5.63;;;;;;;;;;12799403;23;20200;-72
2023/08/20 06:53:31;;;;;;;5.95;4.32;;;;;;;;;;12776753;23;19997;-72
2023/08/20 06:58:32;;;;;;;9.65;5.68;;;;;;;;;;12776753;23;20083;-72
2023/08/20 07:03:37;;;;;;;9.98;5.53;;;;;;;;;;12799448;23;20035;-72
2023/08/20 07:08:39;;;;;;;8.50;4.35;;;;;;;;;;12799681;23;20005;-72
2023/08/20 07:13:39;;;;;;;7.78;4.15;;;;;;;;;;12799025;23;20004;-73
2023/08/20 07:18:39;;;;;;;7.85;4.07;;;;;;;;;;12799621;23;20117;-73
2023/08/20 07:23:39;;;;;;;7.97;3.63;;;;;;;;;;12799300;23;20311;-71
2023/08/20 07:28:58;;;;;;;7.30;3.20;;;;;;;;;;12798868;23;20004;-73
2023/08/20 07:33:59;;;;;;;4.22;3.50;;;;;;;;;;12799375;23;19993;-73
2023/08/20 07:39:00;;;;;;;5.65;3.22;;;;;;;;;;12799692;23;20008;-73
2023/08/20 07:44:00;;;;;;;12.30;3.50;;;;;;;;;;12785047;23;20029;-73
2023/08/20 07:49:00;;;;;;;8.88;3.72;;;;;;;;;;12798608;23;20047;-73
2023/08/20 07:54:01;;;;;;;10.20;3.50;;;;;;;;;;12799284;23;20048;-73
2023/08/20 07:59:01;;;;;;;6.03;3.50;;;;;;;;;;12798685;23;20056;-73
2023/08/20 08:04:01;;;;;;;4.15;3.72;;;;;;;;;;12798501;23;19989;-74
2023/08/20 08:09:19;;;;;;;5.30;2.40;;;;;;;;;;12798845;23;20418;-73
2023/08/20 08:14:19;;;;;;;5.93;2.67;;;;;;;;;;12798674;23;20402;-73
2023/08/20 08:19:20;;;;;;;4.73;3.07;;;;;;;;;;12798256;23;20013;-73
2023/08/20 08:24:20;;;;;;;3.20;2.67;;;;;;;;;;12798548;23;20009;-73
2023/08/20 08:29:20;;;;;;;4.55;2.47;;;;;;;;;;12797811;23;19992;-74
2023/08/20 08:34:23;;;;;;;4.67;2.67;;;;;;;;;;12797522;23;19992;-74
2023/08/20 08:39:26;;;;;;;5.72;2.50;;;;;;;;;;12799074;23;20370;-72
2023/08/20 08:44:28;;;;;;;5.50;2.47;;;;;;;;;;12780476;23;20016;-74
2023/08/20 08:49:29;;;;;;;5.28;2.78;;;;;;;;;;12803647;23;20058;-71
2023/08/20 08:54:32;;;;;;;1.98;1.73;;;;;;;;;;12803984;23;19997;-73
2023/08/20 08:59:32;;;;;;;3.92;2.65;;;;;;;;;;12804618;23;20019;-71
2023/08/20 09:04:32;;;;;;;3.08;2.40;;;;;;;;;;12802737;23;20001;-71
2023/08/20 09:09:33;;;;;;;3.35;2.58;;;;;;;;;;12803275;23;19985;-72
2023/08/20 09:14:33;;;;;;;6.83;2.20;;;;;;;;;;12804272;23;20204;-74
2023/08/20 09:19:39;;;;;;;3.65;2.13;;;;;;;;;;12803255;23;20553;-73
2023/08/20 09:24:45;;;;;;;4.07;1.98;;;;;;;;;;12802784;23;19993;-72
2023/08/20 09:29:48;;;;;;;1.90;1.52;;;;;;;;;;12803467;23;20267;-72
2023/08/20 09:34:49;;;;;;;7.95;1.92;;;;;;;;;;12803437;23;20307;-72
2023/08/20 09:39:50;;;;;;;3.28;1.73;;;;;;;;;;12802876;23;20161;-72
2023/08/20 09:44:52;;;;;;;3.73;1.70;;;;;;;;;;12784050;23;20005;-72
2023/08/20 09:49:53;;;;;;;2.40;2.10;;;;;;;;;;12803590;23;20235;-72
2023/08/20 09:55:13;;;;;;;4.75;1.77;;;;;;;;;;12806411;23;19997;-72
2023/08/20 10:00:14;;;;;;;2.47;1.88;;;;;;;;;;12807031;23;20211;-72
2023/08/20 10:05:15;;;;;;;1.75;1.63;;;;;;;;;;12806779;23;20035;-72
2023/08/20 10:10:16;;;;;;;2.15;1.63;;;;;;;;;;12806651;23;20294;-72
2023/08/20 10:15:17;;;;;;;2.65;1.80;;;;;;;;;;12785259;23;19993;-72
2023/08/20 10:20:17;;;;;;;2.42;1.75;;;;;;;;;;12806028;23;20017;-72
2023/08/20 10:25:24;;;;;;;2.87;1.60;;;;;;;;;;12806681;23;20055;-72
2023/08/20 10:30:25;;;;;;;2.97;1.55;;;;;;;;;;12806222;23;20000;-72
2023/08/20 10:35:45;;;;;;;3.28;1.67;;;;;;;;;;12806565;23;20024;-72
2023/08/20 10:40:56;;;;;;;2.67;1.60;;;;;;;;;;12784182;23;20464;-72
2023/08/20 10:46:14;;;;;;;2.63;1.63;;;;;;;;;;12805818;23;20005;-72
2023/08/20 10:51:23;;;;;;;3.05;1.30;;;;;;;;;;12806054;23;20047;-72
2023/08/20 10:56:37;;;;;;;2.00;1.48;;;;;;;;;;12805690;23;20011;-72
2023/08/20 11:01:38;;;;;;;5.40;1.60;;;;;;;;;;12805566;23;20215;-72
2023/08/20 11:06:39;;;;;;;2.17;1.63;;;;;;;;;;12805832;23;20029;-72
2023/08/20 11:11:42;;;;;;;2.80;1.73;;;;;;;;;;12805472;23;20001;-72
2023/08/20 11:16:43;;;;;;;1.98;1.77;;;;;;;;;;12804774;23;20291;-72
2023/08/20 11:21:44;;;;;;;3.42;1.95;;;;;;;;;;12805112;23;20075;-73
2023/08/20 11:26:44;;;;;;;3.70;2.20;;;;;;;;;;12804717;23;19997;-72
2023/08/20 11:31:44;;;;;;;2.60;2.15;;;;;;;;;;12805493;23;20001;-73
2023/08/20 11:36:45;;;;;;;7.07;3.07;;;;;;;;;;12805375;23;20071;-72
2023/08/20 11:41:45;;;;;;;8.70;2.80;;;;;;;;;;12798231;23;20172;-72
2023/08/20 11:46:45;;;;;;;5.53;2.97;;;;;;;;;;12804489;23;20417;-72
2023/08/20 11:51:52;;;;;;;9.50;3.15;;;;;;;;;;12804490;23;20333;-72
2023/08/20 11:56:52;;;;;;;7.07;3.17;;;;;;;;;;12804772;23;20028;-73
2023/08/20 12:01:57;;;;;;;4.53;3.20;;;;;;;;;;12804530;23;20155;-73
2023/08/20 12:07:02;;;;;;;5.50;3.22;;;;;;;;;;12804527;23;20028;-73
2023/08/20 12:12:05;;;;;;;4.80;2.95;;;;;;;;;;12804412;23;20020;-72
2023/08/20 12:17:05;;;;;;;17.00;4.20;;;;;;;;;;12804337;23;20088;-72
2023/08/20 12:22:06;;;;;;;5.07;3.00;;;;;;;;;;12804147;23;20150;-73
2023/08/20 12:27:06;;;;;;;5.22;3.20;;;;;;;;;;12781638;23;19992;-73
2023/08/20 12:32:07;;;;;;;5.18;3.35;;;;;;;;;;12781575;23;20089;-72
2023/08/20 12:37:07;;;;;;;4.35;2.88;;;;;;;;;;12803943;23;19993;-72
2023/08/20 12:42:08;;;;;;;4.68;3.03;;;;;;;;;;12796717;23;20183;-72
2023/08/20 12:47:08;;;;;;;4.95;3.50;;;;;;;;;;12803660;23;20009;-72
2023/08/20 12:52:08;;;;;;;5.45;3.03;;;;;;;;;;12803537;23;19997;-72
2023/08/20 12:57:08;;;;;;;7.40;3.08;;;;;;;;;;12804282;23;20001;-72
2023/08/20 13:02:10;;;;;;;3.65;2.88;;;;;;;;;;12803643;23;20314;-72
2023/08/20 13:07:10;;;;;;;5.00;3.30;;;;;;;;;;12803262;23;20165;-71
2023/08/20 13:12:12;;;;;;;7.30;3.20;;;;;;;;;;12804265;23;19997;-72
2023/08/20 13:17:12;;;;;;;8.52;3.15;;;;;;;;;;12803762;23;20108;-72
2023/08/20 13:22:12;;;;;;;6.47;3.13;;;;;;;;;;12802973;23;20012;-73
2023/08/20 13:27:13;;;;;;;7.87;3.00;;;;;;;;;;12806291;23;20525;-74
2023/08/20 13:32:13;;;;;;;3.95;3.10;;;;;;;;;;12807261;23;20045;-73
2023/08/20 13:37:13;;;;;;;4.20;2.90;;;;;;;;;;12806898;23;20008;-73
2023/08/20 13:42:14;;;;;;;7.53;2.78;;;;;;;;;;12799810;23;20189;-73
2023/08/20 13:47:14;;;;;;;11.57;3.00;;;;;;;;;;12807150;23;20051;-73
2023/08/20 13:52:14;;;;;;;4.28;2.92;;;;;;;;;;12806680;23;19997;-73
2023/08/20 13:57:14;;;;;;;5.82;3.00;;;;;;;;;;12807516;23;19993;-73
2023/08/20 14:02:15;;;;;;;6.00;2.70;;;;;;;;;;12807063;23;20028;-73
2023/08/20 14:07:15;;;;;;;7.55;3.10;;;;;;;;;;12806155;23;20206;-73
2023/08/20 14:12:15;;;;;;;7.30;2.97;;;;;;;;;;12807016;23;20528;-73
2023/08/20 14:17:16;;;;;;;4.38;2.80;;;;;;;;;;12806427;23;20000;-72
2023/08/20 14:22:16;;;;;;;6.40;2.87;;;;;;;;;;12806279;23;20025;-73
2023/08/20 14:27:16;;;;;;;4.90;2.43;;;;;;;;;;12806257;23;20247;-73
2023/08/20 14:32:16;;;;;;;6.03;2.50;;;;;;;;;;12806927;23;20199;-72
2023/08/20 14:37:17;;;;;;;6.45;3.30;;;;;;;;;;12805651;23;19989;-72
2023/08/20 14:42:17;;;;;;;7.22;3.10;;;;;;;;;;12797528;23;20295;-73
2023/08/20 14:47:17;;;;;;;3.17;2.75;;;;;;;;;;12805794;23;20060;-72
2023/08/20 14:52:17;;;;;;;8.27;2.53;;;;;;;;;;12805922;23;19997;-72
2023/08/20 14:57:18;;;;;;;7.15;3.05;;;;;;;;;;12805789;23;20227;-72
2023/08/20 15:02:18;;;;;;;13.35;3.10;;;;;;;;;;12806193;23;20494;-72
2023/08/20 15:07:18;;;;;;;4.75;2.63;;;;;;;;;;12805467;23;20004;-73
2023/08/20 15:12:19;;;;;;;5.25;2.83;;;;;;;;;;12804853;23;20157;-72
2023/08/20 15:17:19;;;;;;;4.65;3.20;;;;;;;;;;12805584;23;19997;-72
2023/08/20 15:22:19;;;;;;;7.23;2.60;;;;;;;;;;12804726;23;20009;-72
2023/08/20 15:27:20;;;;;;;8.65;2.92;;;;;;;;;;12804937;23;20051;-71
2023/08/20 15:32:21;;;;;;;7.25;2.53;;;;;;;;;;12805129;23;19997;-71
2023/08/20 15:37:21;;;;;;;5.43;3.10;;;;;;;;;;12804487;23;19997;-72
2023/08/20 15:42:21;;;;;;;7.63;2.72;;;;;;;;;;12781991;23;20215;-71
2023/08/20 15:47:22;;;;;;;7.63;2.72;;;;;;;;;;12804784;23;20035;-71
2023/08/20 15:52:22;;;;;;;4.53;3.17;;;;;;;;;;12782191;23;20303;-72
2023/08/20 15:57:22;;;;;;;4.03;2.90;;;;;;;;;;12804504;23;19993;-72
2023/08/20 16:02:22;;;;;;;4.30;2.97;;;;;;;;;;12804982;23;20455;-72
2023/08/20 16:07:23;;;;;;;7.03;3.60;;;;;;;;;;12803459;23;20035;-71
2023/08/20 16:12:23;;;;;;;6.97;3.35;;;;;;;;;;12803598;23;20019;-71
2023/08/20 16:17:23;;;;;;;9.23;3.35;;;;;;;;;;12804624;23;19993;-71
2023/08/20 16:22:24;;;;;;;13.73;3.67;;;;;;;;;;12803398;23;20339;-71
2023/08/20 16:27:24;;;;;;;7.40;3.20;;;;;;;;;;12803967;23;20000;-72
2023/08/20 16:32:24;;;;;;;6.50;3.25;;;;;;;;;;12804198;23;20056;-72
2023/08/20 16:37:24;;;;;;;6.03;3.13;;;;;;;;;;12803792;23;20001;-72
2023/08/20 16:42:25;;;;;;;8.13;3.25;;;;;;;;;;12795231;23;20000;-72
2023/08/20 16:47:25;;;;;;;5.55;3.10;;;;;;;;;;12804205;23;20310;-72
2023/08/20 16:52:25;;;;;;;11.40;4.28;;;;;;;;;;12802843;23;20470;-72
2023/08/20 16:57:25;;;;;;;5.90;3.17;;;;;;;;;;12803098;23;19993;-72
2023/08/20 17:02:26;;;;;;;4.55;3.50;;;;;;;;;;12805763;23;20338;-78
2023/08/20 17:07:26;;;;;;;7.85;3.78;;;;;;;;;;12785975;23;20060;-75
2023/08/20 17:12:26;;;;;;;5.78;3.90;;;;;;;;;;12806807;23;19997;-74
2023/08/20 17:17:28;;;;;;;4.80;3.37;;;;;;;;;;12807880;23;20001;-73
2023/08/20 17:22:28;;;;;;;8.35;4.10;;;;;;;;;;12807382;23;20024;-73
2023/08/20 17:27:31;;;;;;;14.50;3.60;;;;;;;;;;12804420;23;20157;-71
2023/08/20 17:32:32;;;;;;;8.32;3.97;;;;;;;;;;12804022;23;19996;-74
2023/08/20 17:37:32;;;;;;;4.60;3.78;;;;;;;;;;12803897;23;20049;-74
2023/08/20 17:42:32;;;;;;;9.63;3.67;;;;;;;;;;12798040;23;20060;-75
2023/08/20 17:47:33;;;;;;;11.60;5.20;;;;;;;;;;12806989;23;20009;-78
2023/08/20 17:52:35;;;;;;;10.17;4.23;;;;;;;;;;12784959;23;20040;-75
2023/08/20 17:57:37;;;;;;;6.20;3.88;;;;;;;;;;12807432;23;19993;-74
2023/08/20 18:02:40;;;;;;;8.35;4.00;;;;;;;;;;12806106;23;20017;-77
2023/08/20 18:07:40;;;;;;;12.32;6.82;;;;;;;;;;12805580;23;20028;-73
2023/08/20 18:12:40;;;;;;;13.50;3.77;;;;;;;;;;12805922;23;19989;-67
2023/08/20 18:17:40;;;;;;;5.57;3.80;;;;;;;;;;12805857;23;20003;-71
2023/08/20 18:22:41;;;;;;;6.28;3.78;;;;;;;;;;12807551;23;20207;-72
2023/08/20 18:27:44;;;;;;;7.90;4.43;;;;;;;;;;12804608;23;20336;-70
2023/08/20 18:32:45;;;;;;;5.93;4.10;;;;;;;;;;12804985;23;20228;-71
2023/08/20 18:37:45;;;;;;;11.98;8.43;;;;;;;;;;12805368;23;20674;-71
2023/08/20 18:42:45;;;;;;;8.80;4.20;;;;;;;;;;12793469;23;20009;-71
2023/08/20 18:47:45;;;;;;;35.22;30.15;;;;;;;;;;12805045;23;20040;-71
2023/08/20 18:52:46;;;;;;;7.20;5.05;;;;;;;;;;12804971;23;20016;-71
2023/08/20 18:57:46;;;;;;;10.68;4.43;;;;;;;;;;12804592;23;20294;-71
2023/08/20 19:02:46;;;;;;;22.67;8.45;;;;;;;;;;12804900;23;20313;-71
2023/08/20 19:07:52;;;;;;;4.18;3.78;;;;;;;;;;12804326;23;20351;-71
2023/08/20 19:30:05;;;;;;;6.13;4.80;;;;;;;;;;12806500;23;20024;-74
2023/08/20 19:35:06;;;;;;;10.38;4.30;;;;;;;;;;12803638;23;20007;-72
2023/08/20 19:40:09;;;;;;;10.40;4.77;;;;;;;;;;12814235;23;20089;-80
2023/08/20 19:45:09;;;;;;;7.28;4.80;;;;;;;;;;12758731;23;20020;-81
2023/08/20 19:50:12;;;;;;;9.27;4.60;;;;;;;;;;12759529;23;20165;-85
2023/08/20 19:55:13;;;;;;;13.73;4.50;;;;;;;;;;12807569;23;19997;-86
2023/08/20 20:00:15;;;;;;;11.83;4.90;;;;;;;;;;12806246;23;19997;-85
2023/08/20 20:05:16;;;;;;;9.73;5.03;;;;;;;;;;12806699;23;20001;-87
2023/08/20 20:10:17;;;;;;;12.00;5.05;;;;;;;;;;12779691;23;20064;-74
2023/08/20 20:15:17;;;;;;;9.70;4.03;;;;;;;;;;12762734;23;20000;-73
2023/08/20 20:20:20;;;;;;;10.27;4.70;;;;;;;;;;12810221;23;20246;-73
2023/08/20 20:25:20;;;;;;;10.40;4.88;;;;;;;;;;12810742;23;20199;-73
2023/08/20 20:30:21;;;;;;;10.23;4.57;;;;;;;;;;12810750;23;20052;-73
2023/08/20 20:35:21;;;;;;;12.93;5.00;;;;;;;;;;12809674;23;20264;-73
2023/08/20 20:40:21;;;;;;;7.20;4.43;;;;;;;;;;12809361;23;19993;-73
2023/08/20 20:45:22;;;;;;;7.07;4.45;;;;;;;;;;12811768;23;20027;-73
2023/08/20 20:50:22;;;;;;;9.32;4.60;;;;;;;;;;12813238;23;20243;-73
2023/08/20 20:55:22;;;;;;;8.52;5.15;;;;;;;;;;12812674;23;20020;-73
2023/08/20 21:00:23;;;;;;;10.50;5.35;;;;;;;;;;12766215;23;20127;-74
2023/08/20 21:05:23;;;;;;;10.37;5.00;;;;;;;;;;12766867;23;20068;-74
2023/08/20 21:10:23;;;;;;;11.50;4.90;;;;;;;;;;12813132;23;20044;-73
2023/08/20 21:15:23;;;;;;;7.60;4.63;;;;;;;;;;12813149;23;20001;-74
2023/08/20 21:20:24;;;;;;;9.48;5.78;;;;;;;;;;12813100;23;20004;-73
2023/08/20 21:25:24;;;;;;;7.97;4.90;;;;;;;;;;12813184;23;19997;-74
2023/08/20 21:30:24;;;;;;;12.30;5.63;;;;;;;;;;12765901;23;20303;-74
2023/08/20 21:35:25;;;;;;;9.07;5.10;;;;;;;;;;12812941;23;20053;-73
2023/08/20 21:40:25;;;;;;;8.35;5.47;;;;;;;;;;12766223;23;20226;-74
2023/08/20 21:45:25;;;;;;;8.65;5.60;;;;;;;;;;12813209;23;20035;-74
2023/08/20 21:50:25;;;;;;;6.55;5.25;;;;;;;;;;12817520;23;20263;-74
2023/08/20 21:55:26;;;;;;;9.93;5.47;;;;;;;;;;12816991;23;20004;-74
2023/08/20 22:00:26;;;;;;;5.28;4.55;;;;;;;;;;12816592;23;20021;-73
2023/08/20 22:05:26;;;;;;;8.93;5.35;;;;;;;;;;12770009;23;20032;-73
2023/08/20 22:10:27;;;;;;;9.83;5.53;;;;;;;;;;12816209;23;19985;-72
2023/08/20 22:15:27;;;;;;;8.83;5.80;;;;;;;;;;12769435;23;20048;-73
2023/08/20 22:20:27;;;;;;;7.87;5.07;;;;;;;;;;12815918;23;20070;-73
2023/08/20 22:25:28;;;;;;;9.70;5.32;;;;;;;;;;12815827;23;20228;-73
2023/08/20 22:30:28;;;;;;;9.63;6.40;;;;;;;;;;12816200;23;20004;-73
2023/08/20 22:35:28;;;;;;;7.57;5.20;;;;;;;;;;12816369;23;20215;-74
2023/08/20 22:40:29;;;;;;;8.43;5.47;;;;;;;;;;12814884;23;20049;-73
2023/08/20 22:45:29;;;;;;;7.85;5.90;;;;;;;;;;12815838;23;20036;-73
2023/08/20 22:50:30;;;;;;;14.80;6.33;;;;;;;;;;12815880;23;20295;-73
2023/08/20 22:55:30;;;;;;;9.50;5.75;;;;;;;;;;12815306;23;20007;-73
2023/08/20 23:00:30;;;;;;;11.90;5.93;;;;;;;;;;12768410;23;20000;-75
2023/08/20 23:05:30;;;;;;;9.73;5.70;;;;;;;;;;12815183;23;20330;-72
2023/08/20 23:10:31;;;;;;;12.32;5.43;;;;;;;;;;12815284;23;20200;-73
2023/08/20 23:15:31;;;;;;;10.15;5.43;;;;;;;;;;12768133;23;20001;-73
2023/08/20 23:20:31;;;;;;;9.07;5.40;;;;;;;;;;12815051;23;20115;-73
2023/08/20 23:25:32;;;;;;;8.48;5.35;;;;;;;;;;12814763;23;20005;-73
2023/08/20 23:30:32;;;;;;;12.93;7.17;;;;;;;;;;12814978;23;20172;-73
2023/08/20 23:35:32;;;;;;;8.98;6.10;;;;;;;;;;12815236;23;20231;-73
2023/08/20 23:40:33;;;;;;;12.60;6.70;;;;;;;;;;12813536;23;20346;-73
2023/08/20 23:45:33;;;;;;;9.13;6.23;;;;;;;;;;12815658;23;20047;-73
2023/08/20 23:50:33;;;;;;;9.43;6.22;;;;;;;;;;12816982;23;20195;-72
2023/08/20 23:55:33;;;;;;;11.35;6.53;;;;;;;;;;12814385;23;19996;-74
